Time;durP1;ratioP1;P1;durP2;ratioP2;P2;SDS_P1;SDS_P2;PMS_P1;PMS_P2;Temp;Humidity;BMP_temperature;BMP_pressure;BME280_temperature;BME280_humidity;BME280_pressure;Samples;Min_cycle;Max_cycle;Signal;HPM_P1;HPM_P2
2022/06/03 00:00:09;;;;;;;12.90;9.43;;;;;;;12.21;71.24;101956.06;4969339;28;20077;-77
2022/06/03 00:02:53;;;;;;;11.50;8.48;;;;;;;12.18;72.73;101955.25;4974278;28;20059;-77
2022/06/03 00:06:05;;;;;;;13.27;9.25;;;;;;;12.14;72.65;101951.00;4970238;28;20014;-77
2022/06/03 00:09:13;;;;;;;12.20;8.65;;;;;;;12.08;72.65;101946.72;4999969;28;20030;-77
2022/06/03 00:12:00;;;;;;;13.80;9.05;;;;;;;12.06;73.26;101948.50;4970549;28;20141;-77
2022/06/03 00:14:34;;;;;;;12.18;9.02;;;;;;;12.06;72.84;101948.50;4971205;28;20042;-77
2022/06/03 00:17:02;;;;;;;;;;;;;;;12.09;71.72;101948.44;4974029;28;20398;-77
2022/06/03 00:19:41;;;;;;;13.88;8.82;;;;;;;12.06;71.62;101951.09;4976436;28;19968;-77
2022/06/03 00:22:13;;;;;;;14.93;9.70;;;;;;;12.04;72.80;101942.44;4968665;28;20031;-77
2022/06/03 00:24:53;;;;;;;13.20;9.40;;;;;;;12.06;71.71;101945.03;4976740;28;20065;-77
2022/06/03 00:27:27;;;;;;;13.35;9.00;;;;;;;12.07;73.40;101946.75;4974404;28;20023;-77
2022/06/03 00:30:11;;;;;;;;;;;;;;;12.09;71.39;101942.38;4973346;28;20031;-77
2022/06/03 00:32:56;;;;;;;13.50;8.90;;;;;;;12.01;73.20;101942.47;4970806;28;19917;-77
2022/06/03 00:35:47;;;;;;;12.25;9.18;;;;;;;11.99;73.67;101945.97;4979415;28;20049;-77
2022/06/03 00:38:20;;;;;;;14.00;9.93;;;;;;;11.97;72.79;101946.00;4969615;28;20037;-77
2022/06/03 00:41:19;;;;;;;14.05;9.65;;;;;;;11.96;73.97;101933.00;4978076;28;20086;-77
2022/06/03 00:43:52;;;;;;;12.25;9.63;;;;;;;11.98;74.29;101939.06;4967675;28;20118;-77
2022/06/03 00:46:35;;;;;;;13.23;9.52;;;;;;;11.94;74.18;101935.63;4970658;28;20035;-77
2022/06/03 00:49:09;;;;;;;14.27;9.73;;;;;;;11.93;73.75;101933.06;4979666;28;20481;-77
2022/06/03 00:52:28;;;;;;;11.48;9.43;;;;;;;11.96;73.92;101933.00;4975302;28;20027;-77
2022/06/03 00:55:29;;;;;;;13.18;9.88;;;;;;;11.92;72.49;101944.31;4946712;29;20121;-77
2022/06/03 00:58:20;;;;;;;13.25;9.18;;;;;;;11.91;73.44;101933.06;4948270;28;20031;-77
2022/06/03 01:01:14;;;;;;;13.85;9.95;;;;;;;11.92;73.41;101941.72;4965353;28;20042;-77
2022/06/03 01:04:09;;;;;;;13.82;9.80;;;;;;;11.90;72.51;101923.56;4970752;28;20037;-77
2022/06/03 01:07:11;;;;;;;14.90;9.85;;;;;;;11.94;71.83;101927.00;4978283;28;20057;-77
2022/06/03 01:09:46;;;;;;;13.90;9.38;;;;;;;11.96;74.14;101918.28;4974041;28;20050;-77
2022/06/03 01:12:36;;;;;;;13.40;9.48;;;;;;;11.97;72.33;101919.13;4968656;28;20040;-77
2022/06/03 01:15:33;;;;;;;15.10;9.57;;;;;;;11.97;72.86;101921.75;4970795;28;20097;-77
2022/06/03 01:18:29;;;;;;;12.93;9.38;;;;;;;11.98;74.01;101916.53;4968681;28;20466;-77
2022/06/03 01:21:16;;;;;;;12.85;9.93;;;;;;;11.98;73.42;101918.28;4968683;28;20393;-77
2022/06/03 01:24:00;;;;;;;11.90;9.02;;;;;;;12.01;73.10;101924.28;4967661;28;20031;-77
2022/06/03 01:26:31;;;;;;;12.15;9.32;;;;;;;12.04;74.12;101913.00;4970813;28;20023;-77
2022/06/03 01:29:39;;;;;;;12.55;9.23;;;;;;;12.05;71.26;101912.97;4973724;28;20030;-77
2022/06/03 01:32:17;;;;;;;14.00;9.27;;;;;;;12.08;73.65;101909.47;4968446;28;20124;-77
2022/06/03 01:35:11;;;;;;;11.43;8.95;;;;;;;12.08;71.77;101907.72;4969917;28;20389;-77
2022/06/03 01:37:42;;;;;;;13.10;9.02;;;;;;;12.09;73.54;101901.66;4972840;28;20041;-77
2022/06/03 01:40:08;;;;;;;13.55;9.05;;;;;;;12.14;70.73;101904.22;4979833;28;20019;-77
2022/06/03 01:42:33;;;;;;;12.60;9.27;;;;;;;12.18;71.45;101905.88;4969775;28;20081;-77
2022/06/03 01:45:17;;;;;;;11.80;8.90;;;;;;;12.21;71.27;101903.25;4969869;28;20027;-77
2022/06/03 01:48:03;;;;;;;12.00;9.07;;;;;;;12.24;72.23;101898.84;4971150;28;20089;-77
2022/06/03 01:50:53;;;;;;;13.57;9.57;;;;;;;12.26;70.30;101894.50;4979988;28;20034;-77
2022/06/03 01:53:37;;;;;;;10.98;8.70;;;;;;;12.28;70.81;101884.09;4973070;28;20034;-77
2022/06/03 01:56:23;;;;;;;12.50;9.63;;;;;;;12.27;71.00;101883.22;4984373;28;20027;-77
2022/06/03 01:59:22;;;;;;;12.35;9.35;;;;;;;12.29;70.82;101883.19;4986358;28;20019;-77
2022/06/03 02:02:06;;;;;;;12.90;9.13;;;;;;;12.28;71.97;101889.28;4975360;28;20041;-77
2022/06/03 02:04:40;;;;;;;10.52;8.38;;;;;;;12.27;73.08;101892.75;4972928;28;20035;-77
2022/06/03 02:07:37;;;;;;;10.80;9.02;;;;;;;12.21;72.76;101880.69;4982170;28;20172;-77
2022/06/03 02:10:17;;;;;;;12.75;9.45;;;;;;;12.17;74.43;101876.41;4977732;28;20027;-77
2022/06/03 02:13:08;;;;;;;11.63;9.05;;;;;;;12.14;73.58;101884.28;4981391;28;20022;-77
2022/06/03 02:15:36;;;;;;;14.10;9.15;;;;;;;12.11;73.57;101888.66;4970939;28;20027;-77
2022/06/03 02:18:37;;;;;;;14.48;9.63;;;;;;;12.10;73.83;101885.19;4981195;28;20048;-77
2022/06/03 02:21:21;;;;;;;13.00;9.18;;;;;;;12.07;71.87;101885.25;4977113;28;20285;-77
2022/06/03 02:24:13;;;;;;;14.40;9.65;;;;;;;12.07;71.59;101882.66;4973093;28;20027;-77
2022/06/03 02:26:53;;;;;;;14.45;9.10;;;;;;;12.11;70.50;101881.72;4977645;28;20376;-77
2022/06/03 02:33:00;;;;;;;12.32;8.82;;;;;;;12.18;72.81;101878.16;4974677;28;20148;-77
2022/06/03 02:35:47;;;;;;;12.20;8.98;;;;;;;12.20;71.97;101872.94;4973781;28;20104;-77
2022/06/03 02:38:26;;;;;;;11.35;9.07;;;;;;;12.19;71.38;101868.63;4966059;28;20026;-77
2022/06/03 02:41:29;;;;;;;13.00;9.32;;;;;;;12.18;71.82;101864.28;4967321;28;20097;-77
2022/06/03 02:44:25;;;;;;;12.32;9.48;;;;;;;12.16;72.21;101861.69;4964247;28;20054;-77
2022/06/03 02:47:06;;;;;;;13.52;9.50;;;;;;;12.14;71.61;101866.09;4972034;28;20025;-77
2022/06/03 02:49:37;;;;;;;12.77;9.65;;;;;;;12.11;71.27;101865.25;4978218;28;20030;-77
2022/06/03 02:52:36;;;;;;;13.25;9.68;;;;;;;12.07;71.86;101861.84;4977959;28;20037;-77
2022/06/03 02:55:05;;;;;;;10.93;9.43;;;;;;;12.06;72.56;101862.72;4965385;28;20034;-77
2022/06/03 02:58:07;;;;;;;12.20;9.00;;;;;;;12.06;72.59;101861.88;4973533;28;20114;-77
2022/06/03 03:01:09;;;;;;;13.27;10.48;;;;;;;12.03;72.20;101859.28;4984017;28;20098;-77
2022/06/03 03:03:49;;;;;;;12.70;9.68;;;;;;;11.98;72.36;101856.75;4971726;28;20034;-77
2022/06/03 03:06:25;;;;;;;15.20;10.18;;;;;;;11.96;71.12;101858.50;4992454;28;20146;-77
2022/06/03 03:08:56;;;;;;;15.70;10.27;;;;;;;11.93;72.48;101857.72;4968476;28;20050;-77
2022/06/03 03:11:29;;;;;;;15.55;10.70;;;;;;;11.91;73.57;101867.25;4970667;28;20402;-77
2022/06/03 03:13:57;;;;;;;12.52;10.20;;;;;;;11.90;71.63;101862.94;4976653;28;20035;-77
2022/06/03 03:16:22;;;;;;;12.90;9.52;;;;;;;11.90;73.79;101862.94;4978163;28;20026;-77
2022/06/03 03:19:10;;;;;;;16.07;11.57;;;;;;;11.88;73.26;101869.00;4971246;28;20027;-77
2022/06/03 03:21:36;;;;;;;15.27;10.60;;;;;;;11.85;73.73;101870.78;4971927;28;20657;-77
2022/06/03 03:24:04;;;;;;;14.57;10.67;;;;;;;11.83;73.35;101865.63;4962596;28;20035;-77
2022/06/03 03:26:50;;;;;;;13.80;10.50;;;;;;;11.85;72.82;101863.00;4976357;28;20668;-77
2022/06/03 03:29:57;;;;;;;12.80;9.52;;;;;;;11.83;72.92;101855.22;4981027;28;20493;-77
2022/06/03 03:32:41;;;;;;;17.15;10.48;;;;;;;11.78;72.42;101846.63;4970520;28;20060;-77
2022/06/03 03:35:25;;;;;;;15.33;10.63;;;;;;;11.75;72.09;101846.66;4974673;28;20030;-77
2022/06/03 03:38:28;;;;;;;16.45;10.60;;;;;;;11.75;73.28;101846.66;4958338;28;20298;-77
2022/06/03 03:41:18;;;;;;;24.27;10.00;;;;;;;11.71;73.21;101850.16;4976571;28;20038;-77
2022/06/03 03:44:19;;;;;;;16.92;10.40;;;;;;;11.68;73.45;101839.78;4985911;28;20023;-77
2022/06/03 03:47:12;;;;;;;13.52;10.23;;;;;;;11.67;72.36;101847.63;4978566;28;20108;-77
2022/06/03 03:49:58;;;;;;;12.88;10.25;;;;;;;11.64;73.51;101843.31;4976468;28;20515;-77
2022/06/03 03:52:36;;;;;;;14.80;10.63;;;;;;;11.61;74.21;101835.53;4971609;28;20034;-77
2022/06/03 03:55:20;;;;;;;14.45;10.65;;;;;;;11.57;73.49;101840.81;4974787;28;20030;-77
2022/06/03 03:58:11;;;;;;;15.25;10.80;;;;;;;11.56;72.83;101845.13;4976140;28;20579;-77
2022/06/03 04:01:03;;;;;;;15.57;10.90;;;;;;;11.55;75.06;101837.34;4970499;28;20417;-77
2022/06/03 04:04:00;;;;;;;15.90;10.75;;;;;;;11.56;74.48;101833.88;4983148;28;20034;-77
2022/06/03 04:07:03;;;;;;;16.38;10.98;;;;;;;11.57;74.06;101840.81;4973919;28;20476;-77
2022/06/03 04:09:54;;;;;;;17.25;10.80;;;;;;;11.56;75.32;101839.94;4976909;28;20041;-77
2022/06/03 04:12:51;;;;;;;15.65;11.07;;;;;;;11.54;73.57;101838.22;4970884;28;20500;-77
2022/06/03 04:15:43;;;;;;;25.15;11.40;;;;;;;11.54;74.36;101838.22;4980367;28;20065;-77
2022/06/03 04:18:45;;;;;;;32.97;11.93;;;;;;;11.55;74.85;101832.16;4971690;28;20027;-77
2022/06/03 04:21:32;;;;;;;20.85;11.07;;;;;;;11.54;73.79;101836.50;4967245;28;20462;-77
2022/06/03 04:24:18;;;;;;;17.65;11.52;;;;;;;11.56;75.87;101834.75;4969096;28;20055;-77
2022/06/03 04:26:59;;;;;;;16.67;11.30;;;;;;;11.59;75.56;101831.25;4974186;28;20077;-77
2022/06/03 04:29:58;;;;;;;17.17;11.63;;;;;;;11.62;74.36;101833.81;4972985;28;20057;-77
2022/06/03 04:33:01;;;;;;;17.48;12.15;;;;;;;11.65;73.70;101831.19;4970698;28;20046;-77
2022/06/03 04:35:32;;;;;;;18.92;11.93;;;;;;;11.67;75.36;101832.88;4968170;28;20086;-77
2022/06/03 04:38:06;;;;;;;18.83;12.15;;;;;;;11.71;75.17;101828.50;4969909;28;20084;-77
2022/06/03 04:40:50;;;;;;;;;;;;;;;11.74;73.72;101828.50;4974626;28;20026;-77
2022/06/03 04:44:09;;;;;;;17.52;11.93;;;;;;;11.77;73.97;101831.06;4968687;28;19910;-77
2022/06/03 04:46:34;;;;;;;17.58;12.35;;;;;;;11.80;73.63;101831.88;4985690;28;20109;-77
2022/06/03 04:49:11;;;;;;;17.15;12.18;;;;;;;11.85;73.55;101824.03;4966907;28;20267;-77
2022/06/03 04:51:56;;;;;;;17.60;12.40;;;;;;;11.90;74.08;101829.16;4970336;28;20046;-77
2022/06/03 04:54:31;;;;;;;17.83;12.90;;;;;;;11.94;72.66;101825.66;4974490;28;20441;-77
2022/06/03 04:57:08;;;;;;;;;;;;;;;11.99;72.75;101837.69;4970070;28;20094;-77
2022/06/03 04:59:55;;;;;;;19.30;12.13;;;;;;;12.00;74.07;101834.22;4978426;28;20391;-77
2022/06/03 05:02:58;;;;;;;18.38;12.73;;;;;;;12.04;73.18;101833.28;4967513;28;20038;-77
2022/06/03 05:05:48;;;;;;;18.20;13.15;;;;;;;12.09;74.12;101843.63;4977331;28;20034;-77
2022/06/03 05:08:43;;;;;;;18.70;12.57;;;;;;;12.13;72.57;101837.50;4966353;28;20105;-77
2022/06/03 05:11:30;;;;;;;20.60;12.88;;;;;;;12.19;74.60;101840.03;4981845;28;20079;-77
2022/06/03 05:14:26;;;;;;;19.23;13.45;;;;;;;12.24;73.68;101840.81;4982232;28;20489;-77
2022/06/03 05:17:22;;;;;;;17.23;12.52;;;;;;;12.30;73.66;101840.72;4965196;28;20037;-77
2022/06/03 05:20:05;;;;;;;17.67;12.40;;;;;;;12.38;73.74;101845.81;4969191;28;20023;-78
2022/06/03 05:22:40;;;;;;;20.40;13.23;;;;;;;12.42;73.75;101842.28;4957928;28;20109;-77
2022/06/03 05:25:11;;;;;;;;;;;;;;;12.49;73.23;101838.69;4982875;28;20648;-77
2022/06/03 05:27:54;;;;;;;16.63;12.68;;;;;;;12.54;72.61;101837.75;4968293;28;19910;-77
2022/06/03 05:30:35;;;;;;;19.45;13.15;;;;;;;12.60;74.77;101837.66;4966688;28;20034;-78
2022/06/03 05:33:25;;;;;;;18.45;12.77;;;;;;;12.67;74.68;101835.81;4966943;28;20039;-77
2022/06/03 05:36:08;;;;;;;17.30;12.45;;;;;;;12.77;71.94;101834.75;4972942;28;20397;-77
2022/06/03 05:38:52;;;;;;;17.42;13.45;;;;;;;12.84;72.75;101828.56;4969393;28;20037;-77
2022/06/03 05:44:54;;;;;;;17.60;12.98;;;;;;;13.02;71.24;101827.41;4965179;28;20280;-77
2022/06/03 05:47:32;;;;;;;19.27;12.80;;;;;;;13.06;70.84;101824.69;4956978;28;20118;-77
2022/06/03 05:50:15;;;;;;;20.38;12.90;;;;;;;13.16;72.47;101824.56;4955671;28;20371;-77
2022/06/03 05:52:54;;;;;;;19.70;12.98;;;;;;;13.22;72.12;101814.91;4970032;28;20561;-77
2022/06/03 05:55:25;;;;;;;17.77;13.48;;;;;;;13.32;73.94;101820.78;4980372;28;20035;-77
2022/06/03 05:58:01;;;;;;;18.90;13.10;;;;;;;13.40;72.13;101821.50;4967291;28;20037;-77
2022/06/03 06:00:45;;;;;;;18.25;12.90;;;;;;;13.51;72.79;101827.34;4966154;28;20048;-77
2022/06/03 06:03:19;;;;;;;18.98;12.35;;;;;;;13.61;72.03;101821.06;4969913;28;20026;-77
2022/06/03 06:06:05;;;;;;;18.38;12.38;;;;;;;13.66;70.09;101821.81;4970544;28;20039;-77
2022/06/03 06:08:40;;;;;;;17.85;12.50;;;;;;;13.72;68.71;101821.69;4969575;28;20034;-77
2022/06/03 06:11:20;;;;;;;;;;;;;;;13.82;69.37;101827.56;4961038;28;20449;-77
2022/06/03 06:14:22;;;;;;;16.55;12.20;;;;;;;13.94;71.11;101824.69;4972452;28;20261;-78
2022/06/03 06:16:47;;;;;;;18.17;12.25;;;;;;;14.04;70.75;101826.22;4968510;28;20037;-77
2022/06/03 06:19:25;;;;;;;19.95;13.00;;;;;;;14.18;70.96;101828.53;4968194;28;20122;-78
2022/06/03 06:22:18;;;;;;;18.33;12.30;;;;;;;14.38;68.18;101820.28;4962504;28;20039;-78
2022/06/03 06:24:51;;;;;;;20.60;12.90;;;;;;;14.48;66.54;101824.34;4964846;28;20477;-77
2022/06/03 06:27:51;;;;;;;20.17;13.00;;;;;;;14.59;68.52;101827.59;4962350;28;20030;-78
2022/06/03 06:30:50;;;;;;;18.55;12.50;;;;;;;14.67;67.50;101827.41;4958069;28;20038;-78
2022/06/03 06:33:34;;;;;;;20.77;12.43;;;;;;;14.72;70.02;101833.34;4967436;28;20105;-78
2022/06/03 06:36:38;;;;;;;19.10;13.10;;;;;;;14.76;69.54;101820.16;4962065;28;20035;-78
2022/06/03 06:39:09;;;;;;;17.08;12.63;;;;;;;14.78;66.58;101815.78;4979928;28;20031;-78
2022/06/03 06:41:49;;;;;;;18.35;12.45;;;;;;;14.83;66.59;101828.69;4983450;28;20049;-77
2022/06/03 06:44:32;;;;;;;18.17;12.73;;;;;;;14.91;66.21;101827.63;4969283;28;20027;-78
2022/06/03 06:47:21;;;;;;;16.60;12.13;;;;;;;15.01;66.33;101823.03;4968541;28;20446;-77
2022/06/03 06:50:06;;;;;;;16.77;11.77;;;;;;;15.18;67.07;101827.78;4972478;28;20515;-78
2022/06/03 06:52:53;;;;;;;16.67;12.05;;;;;;;15.31;67.29;101818.72;4971482;28;20125;-78
2022/06/03 06:55:26;;;;;;;17.35;12.48;;;;;;;15.43;63.71;101821.84;4970728;28;20256;-78
2022/06/03 06:57:56;;;;;;;17.75;12.15;;;;;;;15.52;64.10;101818.13;4970977;28;20047;-78
2022/06/03 07:00:29;;;;;;;19.15;12.77;;;;;;;15.60;63.50;101823.16;4994394;28;20046;-78
2022/06/03 07:02:57;;;;;;;19.70;12.70;;;;;;;15.71;64.42;101826.31;4971116;28;20397;-78
2022/06/03 07:05:31;;;;;;;17.00;12.75;;;;;;;15.83;64.00;101815.47;4972453;28;20038;-78
2022/06/03 07:08:15;;;;;;;14.73;11.18;;;;;;;16.02;65.25;101814.03;4970431;28;20056;-78
2022/06/03 07:10:49;;;;;;;19.20;11.68;;;;;;;16.20;66.30;101813.47;4978496;28;20110;-78
2022/06/03 07:13:34;;;;;;;15.88;11.93;;;;;;;16.37;61.33;101823.41;4971262;28;20505;-79
2022/06/03 07:16:15;;;;;;;16.92;11.50;;;;;;;16.53;64.39;101822.00;4971127;28;20078;-79
2022/06/03 07:21:52;;;;;;;17.42;12.00;;;;;;;16.88;62.01;101814.75;4977807;28;20049;-79
2022/06/03 07:24:32;;;;;;;18.45;12.52;;;;;;;17.04;63.94;101818.56;4972026;28;20457;-78
2022/06/03 07:27:07;;;;;;;17.38;12.38;;;;;;;17.16;57.71;101812.88;4972049;28;20027;-79
2022/06/03 07:30:03;;;;;;;14.52;11.63;;;;;;;17.40;62.02;101808.50;4978162;28;20027;-79
2022/06/03 07:32:38;;;;;;;15.18;11.55;;;;;;;17.63;60.52;101799.84;4960884;28;20485;-79
2022/06/03 07:35:08;;;;;;;16.83;11.25;;;;;;;17.90;59.62;101798.78;4972089;28;20065;-79
2022/06/03 07:37:49;;;;;;;15.15;11.18;;;;;;;18.35;57.36;101801.38;4970734;28;20553;-79
2022/06/03 07:40:28;;;;;;;14.80;10.82;;;;;;;19.45;56.43;101801.91;4975817;28;20485;-79
2022/06/03 07:43:09;;;;;;;16.42;10.75;;;;;;;20.95;54.23;101794.59;4972063;28;20030;-79
2022/06/03 07:45:48;;;;;;;14.85;10.60;;;;;;;22.23;44.35;101799.09;4971854;28;20027;-79
2022/06/03 07:48:18;;;;;;;11.82;9.55;;;;;;;23.28;44.08;101795.47;4972486;28;20461;-80
2022/06/03 07:50:53;;;;;;;15.73;10.05;;;;;;;24.24;45.22;101794.69;4974085;28;20474;-80
2022/06/03 07:53:28;;;;;;;12.77;9.25;;;;;;;25.05;42.73;101804.19;4971745;28;20102;-80
2022/06/03 07:55:56;;;;;;;11.68;9.45;;;;;;;25.69;37.25;101790.88;4971889;28;20063;-80
2022/06/03 07:58:24;;;;;;;11.77;8.70;;;;;;;26.14;38.49;101778.69;4977394;28;20045;-81
2022/06/03 08:00:50;;;;;;;14.32;9.65;;;;;;;26.50;35.38;101778.63;4973086;28;20580;-80
2022/06/03 08:03:25;;;;;;;13.00;8.60;;;;;;;26.87;38.89;101783.81;4970322;28;20042;-80
2022/06/03 08:05:59;;;;;;;9.55;8.40;;;;;;;27.02;38.95;101786.13;4971643;28;20078;-81
2022/06/03 08:11:15;;;;;;;13.48;8.40;;;;;;;27.12;36.96;101787.13;4969334;28;20104;-81
2022/06/03 08:13:41;;;;;;;13.50;10.25;;;;;;;26.70;35.00;101787.75;4970051;28;20549;-81
2022/06/03 08:16:25;;;;;;;11.90;10.18;;;;;;;26.44;40.89;101779.09;4971238;28;20158;-81
2022/06/03 08:18:55;;;;;;;12.40;9.85;;;;;;;25.65;38.97;101769.00;4973793;28;20034;-81
2022/06/03 08:21:26;;;;;;;11.13;9.88;;;;;;;25.16;39.94;101771.63;4965564;28;20053;-81
2022/06/03 08:23:54;;;;;;;14.65;8.98;;;;;;;24.88;39.33;101758.53;4968780;28;20038;-81
2022/06/03 08:26:23;;;;;;;13.20;8.73;;;;;;;24.76;40.42;101758.44;4971444;28;20477;-81
2022/06/03 08:28:55;;;;;;;10.82;9.57;;;;;;;24.70;38.82;101758.00;4972158;28;20501;-81
2022/06/03 08:31:23;;;;;;;11.88;9.32;;;;;;;24.66;43.38;101756.50;4970870;28;20094;-80
2022/06/03 08:33:59;;;;;;;14.52;9.38;;;;;;;24.77;43.39;101748.66;4970732;28;20014;-81
2022/06/03 08:36:29;;;;;;;13.27;10.30;;;;;;;24.71;38.70;101751.72;4970757;28;20023;-81
2022/06/03 08:38:57;;;;;;;13.00;10.85;;;;;;;24.65;40.88;101754.78;4970510;28;20374;-81
2022/06/03 08:41:26;;;;;;;13.55;11.13;;;;;;;24.49;42.13;101754.16;4979843;28;20026;-81
2022/06/03 08:44:05;;;;;;;12.20;10.35;;;;;;;24.32;42.14;101757.91;4971725;28;20058;-81
2022/06/03 08:46:57;;;;;;;12.68;10.32;;;;;;;23.80;42.78;101755.16;4969769;28;20035;-80
2022/06/03 08:49:38;;;;;;;12.00;9.88;;;;;;;23.53;45.42;101765.72;4970308;28;20062;-80
2022/06/03 08:52:09;;;;;;;14.30;10.25;;;;;;;23.61;42.91;101756.31;4971921;28;20036;-80
2022/06/03 08:54:41;;;;;;;12.38;9.77;;;;;;;23.82;44.95;101767.34;4970598;28;20074;-80
2022/06/03 08:57:15;;;;;;;11.95;9.68;;;;;;;23.93;40.95;101759.56;4970386;28;20102;-80
2022/06/03 09:00:00;;;;;;;14.27;9.05;;;;;;;24.11;43.82;101759.31;4983735;28;20048;-80
2022/06/03 09:02:33;;;;;;;15.55;9.00;;;;;;;24.15;43.53;101761.69;4980644;28;20425;-80
2022/06/03 09:05:04;;;;;;;12.35;9.65;;;;;;;24.14;42.04;101761.78;4970488;28;20477;-80
2022/06/03 09:07:45;;;;;;;10.93;9.32;;;;;;;24.10;40.63;101758.44;4970430;28;20045;-80
2022/06/03 09:10:25;;;;;;;10.27;8.25;;;;;;;23.90;42.37;101759.75;4981139;28;20037;-80
2022/06/03 09:13:18;;;;;;;13.55;8.52;;;;;;;23.75;43.20;101755.44;4970461;28;20101;-81
2022/06/03 09:15:45;;;;;;;10.90;7.93;;;;;;;23.78;40.77;101760.56;4970604;28;20055;-80
2022/06/03 09:18:19;;;;;;;12.32;8.93;;;;;;;23.70;41.15;101754.03;4968212;28;20211;-80
2022/06/03 09:20:52;;;;;;;9.60;7.13;;;;;;;23.69;40.99;101758.50;4961086;28;20025;-80
2022/06/03 09:23:20;;;;;;;9.10;6.50;;;;;;;23.73;41.15;101759.16;4970239;28;20437;-80
2022/06/03 09:25:51;;;;;;;9.45;6.30;;;;;;;23.83;40.72;101747.00;4970476;28;20031;-80
2022/06/03 09:28:25;;;;;;;10.55;7.40;;;;;;;24.15;40.00;101747.56;4969781;28;20325;-80
2022/06/03 09:30:52;;;;;;;9.98;7.00;;;;;;;24.23;39.01;101756.72;4962120;28;20073;-80
2022/06/03 09:33:21;;;;;;;8.20;6.32;;;;;;;24.26;41.52;101748.59;4958700;28;20038;-80
2022/06/03 09:35:51;;;;;;;8.95;6.28;;;;;;;24.10;38.56;101754.94;4970205;28;20039;-80
2022/06/03 09:38:21;;;;;;;8.68;6.20;;;;;;;23.97;40.20;101749.63;4969115;28;20085;-80
2022/06/03 09:40:48;;;;;;;9.32;7.50;;;;;;;23.95;39.53;101749.72;4970900;28;20074;-80
2022/06/03 09:43:25;;;;;;;8.13;6.20;;;;;;;24.06;40.75;101746.38;4968639;28;20034;-80
2022/06/03 09:45:53;;;;;;;10.07;6.30;;;;;;;24.18;39.93;101742.06;4968688;28;20033;-80
2022/06/03 09:48:24;;;;;;;8.93;4.93;;;;;;;24.43;38.70;101739.47;4969241;28;20477;-79
2022/06/03 09:50:52;;;;;;;8.43;4.55;;;;;;;24.47;39.24;101737.50;4976089;28;20118;-80
2022/06/03 09:53:25;;;;;;;9.75;4.65;;;;;;;24.55;38.53;101741.34;4969976;28;20029;-80
2022/06/03 09:55:57;;;;;;;9.90;4.90;;;;;;;24.64;39.40;101738.03;4984721;28;20041;-80
2022/06/03 09:58:30;;;;;;;6.75;5.22;;;;;;;24.80;37.64;101745.78;4969630;28;20034;-80
2022/06/03 10:00:58;;;;;;;7.10;5.10;;;;;;;24.78;37.76;101734.44;4975483;28;20127;-80
2022/06/03 10:03:25;;;;;;;8.43;5.07;;;;;;;24.84;36.15;101741.97;4969868;28;20083;-80
2022/06/03 10:05:54;;;;;;;9.70;5.28;;;;;;;24.84;35.68;101736.66;4968347;28;20398;-81
2022/06/03 10:08:24;;;;;;;8.88;5.82;;;;;;;24.60;35.93;101736.56;4969302;28;20023;-80
2022/06/03 10:13:39;;;;;;;8.65;4.93;;;;;;;24.58;40.44;101727.84;4973871;28;20101;-80
2022/06/03 10:16:07;;;;;;;7.65;5.40;;;;;;;24.58;37.18;101722.53;4973423;28;20483;-80
2022/06/03 10:18:38;;;;;;;4.20;3.67;;;;;;;24.54;36.47;101712.25;4973926;28;20023;-80
2022/06/03 10:21:07;;;;;;;5.53;4.57;;;;;;;24.54;35.38;101721.06;4975616;28;20019;-80
2022/06/03 10:23:43;;;;;;;8.00;5.00;;;;;;;24.54;39.12;101720.22;4971905;28;20486;-80
2022/06/03 10:26:19;;;;;;;8.23;5.05;;;;;;;24.60;37.34;101718.00;4973154;28;20109;-80
2022/06/03 10:28:49;;;;;;;5.97;5.32;;;;;;;24.67;37.11;101710.47;4973896;28;20027;-80
2022/06/03 10:31:16;;;;;;;6.10;4.90;;;;;;;24.59;36.01;101710.13;4978813;28;20034;-80
2022/06/03 10:33:56;;;;;;;6.53;5.13;;;;;;;24.73;38.79;101689.69;4980291;28;20031;-80
2022/06/03 10:36:26;;;;;;;9.98;5.22;;;;;;;24.63;34.96;101696.59;4972997;28;20493;-80
2022/06/03 10:38:52;;;;;;;5.93;4.68;;;;;;;24.43;34.99;101689.13;4971841;28;20106;-80
2022/06/03 10:41:17;;;;;;;8.80;4.85;;;;;;;24.37;38.74;101686.91;4984119;28;20138;-80
2022/06/03 10:43:43;;;;;;;6.32;4.80;;;;;;;24.32;36.99;101692.53;4973155;28;20486;-80
2022/06/03 10:46:15;;;;;;;5.57;4.90;;;;;;;24.38;38.43;101684.16;4973033;28;20026;-81
2022/06/03 10:48:41;;;;;;;4.15;3.60;;;;;;;24.35;36.89;101680.88;4973161;28;20054;-80
2022/06/03 11:01:06;;;;;;;6.43;3.60;;;;;;;24.32;35.97;101695.16;4973763;28;20053;-80
2022/06/03 11:02:34;;;;;;;4.00;3.08;;;;;;;24.23;37.33;101681.69;4974912;28;20378;-84
2022/06/03 11:05:20;;;;;;;8.73;3.17;;;;;;;24.31;34.48;101685.50;4972965;28;20110;-84
2022/06/03 11:08:00;;;;;;;5.05;3.45;;;;;;;24.29;33.93;101699.84;4972660;28;20425;-83
2022/06/03 11:10:45;;;;;;;7.15;4.40;;;;;;;24.08;34.28;101688.84;4980109;28;20025;-84
2022/06/03 11:13:14;;;;;;;5.72;3.47;;;;;;;24.03;33.22;101691.78;4982111;28;20363;-83
2022/06/03 11:15:44;;;;;;;6.50;3.88;;;;;;;23.98;33.28;101682.44;4972895;28;20078;-83
2022/06/03 11:18:29;;;;;;;5.78;3.50;;;;;;;23.95;35.87;101680.03;4972330;28;20027;-84
2022/06/03 11:20:56;;;;;;;5.07;4.28;;;;;;;23.82;35.06;101674.66;4971743;28;20023;-84
2022/06/03 11:23:22;;;;;;;7.60;3.80;;;;;;;23.70;37.82;101671.97;4971536;28;20425;-83
2022/06/03 11:25:50;;;;;;;4.10;3.70;;;;;;;23.74;37.44;101670.84;4972378;28;20026;-84
2022/06/03 11:28:47;;;;;;;5.15;3.45;;;;;;;23.80;37.03;101670.44;4972141;28;20417;-81
2022/06/03 11:31:24;;;;;;;5.47;3.03;;;;;;;23.98;36.87;101669.19;4968265;28;20085;-80
2022/06/03 11:34:01;;;;;;;6.28;3.72;;;;;;;24.00;35.48;101662.00;4972000;28;20045;-80
2022/06/03 11:36:54;;;;;;;5.60;2.80;;;;;;;24.05;35.89;101659.91;4972243;28;20054;-80
2022/06/03 11:39:38;;;;;;;3.85;2.50;;;;;;;24.10;34.95;101664.88;4972148;28;20019;-80
2022/06/03 11:42:24;;;;;;;3.30;2.50;;;;;;;24.10;33.05;101673.69;4983039;28;20058;-80
2022/06/03 11:44:51;;;;;;;4.65;2.95;;;;;;;24.05;34.51;101657.25;4972116;28;20094;-80
2022/06/03 11:47:23;;;;;;;4.03;3.00;;;;;;;24.12;33.91;101658.53;4971631;28;20031;-80
2022/06/03 11:49:49;;;;;;;5.18;2.95;;;;;;;24.27;35.74;101651.38;4971789;28;20121;-80
2022/06/03 11:52:16;;;;;;;5.72;3.05;;;;;;;24.32;33.21;101649.25;4981560;28;20399;-80
2022/06/03 11:54:41;;;;;;;3.90;3.05;;;;;;;24.32;33.87;101652.75;4970531;28;20089;-80
2022/06/03 11:57:07;;;;;;;3.33;3.03;;;;;;;24.25;32.43;101645.34;4971764;28;20022;-80
2022/06/03 11:59:53;;;;;;;4.90;3.72;;;;;;;24.26;32.85;101655.84;4971999;28;20142;-80
2022/06/03 12:02:29;;;;;;;5.35;3.58;;;;;;;24.19;35.40;101651.03;4980346;28;20030;-80
2022/06/03 12:04:58;;;;;;;4.03;3.17;;;;;;;24.24;35.60;101657.72;4970072;28;20046;-80
2022/06/03 12:07:41;;;;;;;6.22;3.53;;;;;;;24.23;34.10;101666.63;4971285;28;20037;-80
2022/06/03 12:10:24;;;;;;;5.97;4.00;;;;;;;24.34;34.20;101668.56;4969416;28;20039;-80
2022/06/03 12:13:19;;;;;;;7.55;4.10;;;;;;;24.37;35.62;101658.59;4963736;28;20038;-80
2022/06/03 12:15:54;;;;;;;4.75;3.70;;;;;;;24.36;34.83;101667.50;4971308;28;20028;-80
2022/06/03 12:18:32;;;;;;;7.80;3.80;;;;;;;24.36;35.73;101662.19;4971150;28;20035;-80
2022/06/03 12:21:00;;;;;;;5.00;3.40;;;;;;;24.43;36.98;101652.00;4971813;28;20437;-80
2022/06/03 12:23:25;;;;;;;6.13;3.60;;;;;;;24.49;33.01;101659.56;4970731;28;20429;-80
2022/06/03 12:25:53;;;;;;;5.50;3.53;;;;;;;24.67;34.28;101652.13;4980497;28;20037;-80
2022/06/03 12:28:26;;;;;;;6.82;3.13;;;;;;;24.78;33.22;101653.06;4971325;28;20109;-80
2022/06/03 12:30:55;;;;;;;4.85;2.65;;;;;;;24.87;30.92;101643.63;4971142;28;20031;-80
2022/06/03 12:33:40;;;;;;;10.52;3.25;;;;;;;24.89;34.03;101646.16;4982359;28;20066;-80
2022/06/03 12:36:28;;;;;;;4.82;2.78;;;;;;;24.83;34.70;101638.66;4971163;28;20069;-80
2022/06/03 12:39:12;;;;;;;4.15;3.30;;;;;;;24.78;31.88;101638.97;4969818;28;20089;-83